Linda — OJML — position and weather

sailwx.info

Track history (hours):
 
Tides and Currents Weather Stations Pressure Air Temp Water Temp Dewpoint Dewpoint Depression Visibility Wind Speed Wind Dir Waves Ship Positions

Linda

Last reported at 2014-Oct-23 12:33 UTC. Time now 2014-Oct-25 04:18 UTC.
Position N 59°34' E 021°14'.

Length 141 m; draft 7 m.

Type: Ship (hazmat cat A). MMSI: 230984000.

Date/timePositionNaut miles runAvg speedWind from/ knotsBaromVisibWave heightAir tempDewpointWater temp
2014-Oct-23 12:33N 59°34' E 021°14'1413.5
2014-Oct-23 11:32N 59°34' E 021°41'4613.5
2014-Oct-23 08:08N 59°39' E 023°12'713.0
2014-Oct-23 07:33N 59°41' E 023°26'9 8.6
2014-Oct-23 06:33N 59°43' E 023°43'8513.7
2014-Oct-23 00:20N 60°01' E 026°29'1213.5
2014-Oct-22 23:25N 60°00' E 026°53'7 0.2
2014-Oct-21 20:21N 59°59' E 026°40'4511.8
2014-Oct-21 16:33N 60°08' E 025°12'5 2.1
2014-Oct-21 14:18N 60°13' E 025°12'0 0.0
2014-Oct-21 07:33N 60°13' E 025°12'0 0.0
2014-Oct-21 04:33N 60°13' E 025°12'2813.1
2014-Oct-21 02:25N 59°47' E 024°48'1416.0
2014-Oct-21 01:33N 59°43' E 024°22'372 7.5
2014-Oct-19 00:13N 55°41' E 015°33'2413.0
2014-Oct-18 22:23N 55°29' E 014°57'2713.3
2014-Oct-18 20:20N 55°11' E 014°21'1113.8
2014-Oct-18 19:31N 55°02' E 014°09'5914.0
2014-Oct-18 15:19N 54°38' E 012°36'1113.5
2014-Oct-18 14:31N 54°32' E 012°21'1212.4
2014-Oct-18 13:33N 54°25' E 012°05'4113.6
2014-Oct-18 10:31N 54°35' E 010°56'9 9.5
2014-Oct-18 09:34N 54°34' E 010°40'1312.7
2014-Oct-18 08:33N 54°30' E 010°19'1010.0
2014-Oct-18 07:33N 54°22' E 010°08'1 0.8
2014-Oct-18 06:33N 54°22' E 010°07'6 6.1
2014-Oct-18 05:33N 54°20' E 009°57'7 7.3
2014-Oct-18 04:33N 54°20' E 009°45'7 6.8
2014-Oct-18 03:30N 54°15' E 009°37'7 7.6
2014-Oct-18 02:33N 54°10' E 009°27'8 5.4
2014-Oct-18 01:05N 54°04' E 009°19'5 8.1
2014-Oct-18 00:30N 53°59' E 009°17'8 8.0
2014-Oct-17 23:33N 53°54' E 009°09'6 5.7
2014-Oct-17 22:34N 53°51' E 009°00'1312.7
2014-Oct-17 21:33N 53°56' E 008°40'1515.1
2014-Oct-17 20:33N 53°60' E 008°15'1615.6
2014-Oct-17 19:33N 53°57' E 007°49'5217.3
2014-Oct-17 16:33N 53°45' E 006°23'1817.8
2014-Oct-17 15:34N 53°39' E 005°55'1818.0
2014-Oct-17 14:34N 53°34' E 005°26'1818.2
2014-Oct-17 13:34N 53°28' E 004°57'1817.6
2014-Oct-17 12:33N 53°15' E 004°36'1918.7
2014-Oct-17 11:33N 52°59' E 004°21'1818.1
2014-Oct-17 10:34N 52°44' E 004°04'1818.2
2014-Oct-17 09:33N 52°30' E 003°44'3918.1
2014-Oct-17 07:23N 51°53' E 003°22'1614.4
2014-Oct-17 06:18N 51°38' E 003°22'1114.4
2014-Oct-17 05:33N 51°28' E 003°30'1110.6
2014-Oct-17 04:33N 51°22' E 003°44'5 5.0
2014-Oct-17 03:33N 51°19' E 003°50'7 6.6
2014-Oct-17 02:34N 51°12' E 003°48'6 5.2
2014-Oct-17 01:28N 51°07' E 003°45'0 0.0
2014-Oct-17 00:22N 51°07' E 003°45'0 0.0
2014-Oct-16 23:28N 51°07' E 003°45'0 0.0
2014-Oct-16 22:28N 51°07' E 003°45'0 0.0
2014-Oct-16 21:28N 51°07' E 003°45'0 0.0
2014-Oct-16 20:28N 51°07' E 003°45'0 0.0
2014-Oct-16 19:28N 51°07' E 003°45'0 0.0
2014-Oct-16 18:16N 51°07' E 003°45'0 0.0
2014-Oct-16 17:33N 51°07' E 003°45'0 0.0
2014-Oct-16 16:31N 51°07' E 003°45'0 0.0
2014-Oct-16 15:31N 51°07' E 003°45'0 0.0
2014-Oct-16 14:28N 51°07' E 003°45'0 0.0
2014-Oct-16 13:28N 51°07' E 003°45'0 0.0
2014-Oct-16 12:31N 51°07' E 003°45'0 0.0
2014-Oct-16 11:16N 51°07' E 003°45'0 0.0
2014-Oct-16 10:31N 51°07' E 003°45'0 0.0
2014-Oct-16 09:31N 51°07' E 003°45'0 0.0
2014-Oct-16 08:28N 51°07' E 003°45'4 4.3
2014-Oct-16 07:34N 51°10' E 003°48'7 7.3
2014-Oct-16 06:34N 51°18' E 003°50'2 2.2
2014-Oct-16 05:34N 51°20' E 003°49'1111.2
2014-Oct-16 04:33N 51°25' E 003°34'1817.5
2014-Oct-16 03:33N 51°24' E 003°06'1716.4
2014-Oct-16 02:32N 51°22' E 002°39'1515.1
2014-Oct-16 01:33N 51°19' E 002°16'1616.3
2014-Oct-16 00:33N 51°27' E 001°53'1514.9
2014-Oct-15 23:34N 51°26' E 001°30'1615.7
2014-Oct-15 22:33N 51°30' E 001°05'1313.1
2014-Oct-15 21:33N 51°26' E 000°44'0 0.0
2014-Oct-15 20:31N 51°26' E 000°44'0 0.0
2014-Oct-15 19:31N 51°26' E 000°44'0 0.0
2014-Oct-15 18:28N 51°26' E 000°44'0 0.0
2014-Oct-15 17:28N 51°26' E 000°44'0 0.0
2014-Oct-15 16:31N 51°26' E 000°44'0 0.0
2014-Oct-15 15:31N 51°26' E 000°44'0 0.0
2014-Oct-15 14:31N 51°26' E 000°44'0 0.0
2014-Oct-15 13:31N 51°26' E 000°44'5 5.2
2014-Oct-15 12:33N 51°29' E 000°52'1616.4
2014-Oct-15 11:33N 51°29' E 001°18'1414.0
2014-Oct-15 10:33N 51°33' E 001°39'1514.7
2014-Oct-15 09:33N 51°48' E 001°44'1616.4
2014-Oct-15 08:33N 52°04' E 001°47'1616.1
2014-Oct-15 07:33N 52°20' E 001°52'1515.4
2014-Oct-15 06:33N 52°35' E 001°54'1414.0
2014-Oct-15 05:33N 52°49' E 001°48'1615.6
2014-Oct-15 04:33N 53°00' E 001°31'5116.3
2014-Oct-15 01:25N 53°44' E 000°46'1416.5
2014-Oct-15 00:33N 53°54' E 000°29'1616.6
2014-Oct-14 23:33N 54°06' E 000°09'1716.7
2014-Oct-14 22:33N 54°18' W 000°10'1717.0
2014-Oct-14 21:33N 54°31' W 000°30'1716.6
2014-Oct-14 20:33N 54°38' W 000°56'8 0.8
2014-Oct-14 09:34N 54°46' W 000°52'3 2.8
2014-Oct-14 08:33N 54°44' W 000°48'3 3.1
2014-Oct-14 07:33N 54°41' W 000°52'0 0.4
2014-Oct-14 06:31N 54°42' W 000°51'6 6.6
2014-Oct-14 05:32N 54°47' W 000°44'2 2.3
2014-Oct-14 04:31N 54°48' W 000°41'12 8.2
2014-Oct-14 03:04N 54°54' W 000°23'714.3
2014-Oct-14 02:33N 54°57' W 000°11'  
Track history (hours):
 
Tides and Currents Weather Stations Pressure Air Temp Water Temp Dewpoint Dewpoint Depression Visibility Wind Speed Wind Dir Waves Ship Positions

Linda

Last reported at 2014-Oct-23 12:33 UTC. Time now 2014-Oct-25 04:18 UTC.
Position N 59°34' E 021°14'.

Length 141 m; draft 7 m.

Type: Ship (hazmat cat A). MMSI: 230984000.

Date/timePositionNaut miles runAvg speedWind from/ knotsBaromVisibWave heightAir tempDewpointWater temp
2014-Oct-23 12:33N 59°34' E 021°14'1413.5
2014-Oct-23 11:32N 59°34' E 021°41'4613.5
2014-Oct-23 08:08N 59°39' E 023°12'713.0
2014-Oct-23 07:33N 59°41' E 023°26'9 8.6
2014-Oct-23 06:33N 59°43' E 023°43'8513.7
2014-Oct-23 00:20N 60°01' E 026°29'1213.5
2014-Oct-22 23:25N 60°00' E 026°53'7 0.2
2014-Oct-21 20:21N 59°59' E 026°40'4511.8
2014-Oct-21 16:33N 60°08' E 025°12'5 2.1
2014-Oct-21 14:18N 60°13' E 025°12'0 0.0
2014-Oct-21 07:33N 60°13' E 025°12'0 0.0
2014-Oct-21 04:33N 60°13' E 025°12'2813.1
2014-Oct-21 02:25N 59°47' E 024°48'1416.0
2014-Oct-21 01:33N 59°43' E 024°22'372 7.5
2014-Oct-19 00:13N 55°41' E 015°33'2413.0
2014-Oct-18 22:23N 55°29' E 014°57'2713.3
2014-Oct-18 20:20N 55°11' E 014°21'1113.8
2014-Oct-18 19:31N 55°02' E 014°09'5914.0
2014-Oct-18 15:19N 54°38' E 012°36'1113.5
2014-Oct-18 14:31N 54°32' E 012°21'1212.4
2014-Oct-18 13:33N 54°25' E 012°05'4113.6
2014-Oct-18 10:31N 54°35' E 010°56'9 9.5
2014-Oct-18 09:34N 54°34' E 010°40'1312.7
2014-Oct-18 08:33N 54°30' E 010°19'1010.0
2014-Oct-18 07:33N 54°22' E 010°08'1 0.8
2014-Oct-18 06:33N 54°22' E 010°07'6 6.1
2014-Oct-18 05:33N 54°20' E 009°57'7 7.3
2014-Oct-18 04:33N 54°20' E 009°45'7 6.8
2014-Oct-18 03:30N 54°15' E 009°37'7 7.6
2014-Oct-18 02:33N 54°10' E 009°27'8 5.4
2014-Oct-18 01:05N 54°04' E 009°19'5 8.1
2014-Oct-18 00:30N 53°59' E 009°17'8 8.0
2014-Oct-17 23:33N 53°54' E 009°09'6 5.7
2014-Oct-17 22:34N 53°51' E 009°00'1312.7
2014-Oct-17 21:33N 53°56' E 008°40'1515.1
2014-Oct-17 20:33N 53°60' E 008°15'1615.6
2014-Oct-17 19:33N 53°57' E 007°49'5217.3
2014-Oct-17 16:33N 53°45' E 006°23'1817.8
2014-Oct-17 15:34N 53°39' E 005°55'1818.0
2014-Oct-17 14:34N 53°34' E 005°26'1818.2
2014-Oct-17 13:34N 53°28' E 004°57'1817.6
2014-Oct-17 12:33N 53°15' E 004°36'1918.7
2014-Oct-17 11:33N 52°59' E 004°21'1818.1
2014-Oct-17 10:34N 52°44' E 004°04'1818.2
2014-Oct-17 09:33N 52°30' E 003°44'3918.1
2014-Oct-17 07:23N 51°53' E 003°22'1614.4
2014-Oct-17 06:18N 51°38' E 003°22'1114.4
2014-Oct-17 05:33N 51°28' E 003°30'1110.6
2014-Oct-17 04:33N 51°22' E 003°44'5 5.0
2014-Oct-17 03:33N 51°19' E 003°50'7 6.6
2014-Oct-17 02:34N 51°12' E 003°48'6 5.2
2014-Oct-17 01:28N 51°07' E 003°45'0 0.0
2014-Oct-17 00:22N 51°07' E 003°45'0 0.0
2014-Oct-16 23:28N 51°07' E 003°45'0 0.0
2014-Oct-16 22:28N 51°07' E 003°45'0 0.0
2014-Oct-16 21:28N 51°07' E 003°45'0 0.0
2014-Oct-16 20:28N 51°07' E 003°45'0 0.0
2014-Oct-16 19:28N 51°07' E 003°45'0 0.0
2014-Oct-16 18:16N 51°07' E 003°45'0 0.0
2014-Oct-16 17:33N 51°07' E 003°45'0 0.0
2014-Oct-16 16:31N 51°07' E 003°45'0 0.0
2014-Oct-16 15:31N 51°07' E 003°45'0 0.0
2014-Oct-16 14:28N 51°07' E 003°45'0 0.0
2014-Oct-16 13:28N 51°07' E 003°45'0 0.0
2014-Oct-16 12:31N 51°07' E 003°45'0 0.0
2014-Oct-16 11:16N 51°07' E 003°45'0 0.0
2014-Oct-16 10:31N 51°07' E 003°45'0 0.0
2014-Oct-16 09:31N 51°07' E 003°45'0 0.0
2014-Oct-16 08:28N 51°07' E 003°45'4 4.3
2014-Oct-16 07:34N 51°10' E 003°48'7 7.3
2014-Oct-16 06:34N 51°18' E 003°50'2 2.2
2014-Oct-16 05:34N 51°20' E 003°49'1111.2
2014-Oct-16 04:33N 51°25' E 003°34'1817.5
2014-Oct-16 03:33N 51°24' E 003°06'1716.4
2014-Oct-16 02:32N 51°22' E 002°39'1515.1
2014-Oct-16 01:33N 51°19' E 002°16'1616.3
2014-Oct-16 00:33N 51°27' E 001°53'1514.9
2014-Oct-15 23:34N 51°26' E 001°30'1615.7
2014-Oct-15 22:33N 51°30' E 001°05'1313.1
2014-Oct-15 21:33N 51°26' E 000°44'0 0.0
2014-Oct-15 20:31N 51°26' E 000°44'0 0.0
2014-Oct-15 19:31N 51°26' E 000°44'0 0.0
2014-Oct-15 18:28N 51°26' E 000°44'0 0.0
2014-Oct-15 17:28N 51°26' E 000°44'0 0.0
2014-Oct-15 16:31N 51°26' E 000°44'0 0.0
2014-Oct-15 15:31N 51°26' E 000°44'0 0.0
2014-Oct-15 14:31N 51°26' E 000°44'0 0.0
2014-Oct-15 13:31N 51°26' E 000°44'5 5.2
2014-Oct-15 12:33N 51°29' E 000°52'1616.4
2014-Oct-15 11:33N 51°29' E 001°18'1414.0
2014-Oct-15 10:33N 51°33' E 001°39'1514.7
2014-Oct-15 09:33N 51°48' E 001°44'1616.4
2014-Oct-15 08:33N 52°04' E 001°47'1616.1
2014-Oct-15 07:33N 52°20' E 001°52'1515.4
2014-Oct-15 06:33N 52°35' E 001°54'1414.0
2014-Oct-15 05:33N 52°49' E 001°48'1615.6
2014-Oct-15 04:33N 53°00' E 001°31'5116.3
2014-Oct-15 01:25N 53°44' E 000°46'1416.5
2014-Oct-15 00:33N 53°54' E 000°29'1616.6
2014-Oct-14 23:33N 54°06' E 000°09'1716.7
2014-Oct-14 22:33N 54°18' W 000°10'1717.0
2014-Oct-14 21:33N 54°31' W 000°30'1716.6
2014-Oct-14 20:33N 54°38' W 000°56'8 0.8
2014-Oct-14 09:34N 54°46' W 000°52'3 2.8
2014-Oct-14 08:33N 54°44' W 000°48'3 3.1
2014-Oct-14 07:33N 54°41' W 000°52'0 0.4
2014-Oct-14 06:31N 54°42' W 000°51'6 6.6
2014-Oct-14 05:32N 54°47' W 000°44'2 2.3
2014-Oct-14 04:31N 54°48' W 000°41'12 8.2
2014-Oct-14 03:04N 54°54' W 000°23'714.3
2014-Oct-14 02:33N 54°57' W 000°11'  

Dump ship's entire track history